Time;durP1;ratioP1;P1;durP2;ratioP2;P2;SDS_P1;SDS_P2;PMS_P1;PMS_P2;Temp;Humidity;BMP_temperature;BMP_pressure;BME280_temperature;BME280_humidity;BME280_pressure;Samples;Min_cycle;Max_cycle;Signal;HPM_P1;HPM_P2
2022/10/25 00:00:46;;;;;;;2.97;0.93;;;12.50;99.90;;;;;;5053046;28;20418;-75
2022/10/25 00:03:12;;;;;;;1.37;0.70;;;12.40;99.90;;;;;;5034898;28;20210;-75
2022/10/25 00:05:39;;;;;;;1.47;0.77;;;12.60;99.90;;;;;;5034780;28;20706;-75
2022/10/25 00:08:05;;;;;;;4.60;0.90;;;12.60;99.90;;;;;;5053110;28;20180;-76
2022/10/25 00:10:31;;;;;;;5.40;1.00;;;12.60;99.90;;;;;;5035047;28;20475;-75
2022/10/25 00:12:56;;;;;;;5.00;1.03;;;12.70;99.90;;;;;;5034958;28;20463;-75
2022/10/25 00:15:22;;;;;;;2.30;0.90;;;12.80;99.90;;;;;;5034706;28;20585;-75
2022/10/25 00:17:49;;;;;;;3.00;1.00;;;12.80;99.90;;;;;;5052518;28;20663;-75
2022/10/25 00:20:15;;;;;;;1.73;0.93;;;12.80;99.90;;;;;;5052916;28;20955;-75
2022/10/25 00:22:40;;;;;;;6.83;1.10;;;12.70;99.90;;;;;;5052811;28;20446;-75
2022/10/25 00:25:08;;;;;;;5.03;1.13;;;12.60;99.90;;;;;;5018086;28;20291;-75
2022/10/25 00:27:34;;;;;;;6.03;1.20;;;12.60;99.90;;;;;;5034532;28;20217;-75
2022/10/25 00:30:00;;;;;;;7.43;0.97;;;12.50;99.90;;;;;;5052307;28;20410;-75
2022/10/25 00:32:26;;;;;;;1.20;0.90;;;12.60;99.90;;;;;;5052129;28;20474;-74
2022/10/25 00:34:51;;;;;;;1.90;1.20;;;12.60;99.90;;;;;;5052197;28;20418;-74
2022/10/25 00:37:17;;;;;;;2.83;1.50;;;12.60;99.90;;;;;;5052140;28;20184;-74
2022/10/25 00:39:45;;;;;;;5.43;2.07;;;12.60;99.90;;;;;;5051833;28;20187;-74
2022/10/25 00:42:17;;;;;;;5.23;1.23;;;12.60;99.90;;;;;;5033747;28;20219;-75
2022/10/25 00:44:48;;;;;;;4.50;1.13;;;12.50;99.90;;;;;;5051544;28;20423;-74
2022/10/25 00:47:20;;;;;;;2.70;1.50;;;12.60;99.90;;;;;;5050152;28;20774;-74
2022/10/25 00:49:54;;;;;;;4.20;1.33;;;12.80;99.90;;;;;;5033569;28;20828;-74
2022/10/25 00:52:20;;;;;;;8.00;1.73;;;12.80;99.90;;;;;;5033692;28;20468;-75
2022/10/25 00:54:49;;;;;;;2.50;1.33;;;12.90;99.90;;;;;;5051083;28;20406;-75
2022/10/25 00:57:24;;;;;;;4.03;1.30;;;13.00;99.90;;;;;;5050965;28;20438;-74
2022/10/25 00:59:50;;;;;;;4.30;1.10;;;13.20;99.90;;;;;;5051061;28;20909;-74
2022/10/25 01:02:17;;;;;;;1.83;1.17;;;13.20;99.90;;;;;;5033258;28;20429;-74
2022/10/25 01:04:43;;;;;;;4.03;1.93;;;13.20;99.90;;;;;;5051017;28;20489;-74
2022/10/25 01:07:08;;;;;;;6.93;1.40;;;13.20;99.90;;;;;;5050960;28;20414;-74
2022/10/25 01:09:36;;;;;;;4.57;1.50;;;13.30;99.90;;;;;;5033090;28;20403;-75
2022/10/25 01:12:03;;;;;;;4.40;1.20;;;13.30;99.90;;;;;;5050859;28;20221;-74
2022/10/25 01:14:30;;;;;;;4.10;1.20;;;13.30;99.90;;;;;;5032838;28;20425;-74
2022/10/25 01:17:17;;;;;;;6.50;0.90;;;13.20;99.90;;;;;;5051050;28;20959;-74
2022/10/25 01:20:00;;;;;;;2.70;1.20;;;13.40;99.90;;;;;;5050705;28;20489;-74
2022/10/25 01:22:48;;;;;;;6.50;0.93;;;13.30;99.90;;;;;;5032639;28;20437;-73
2022/10/25 01:25:53;;;;;;;2.83;0.90;;;13.20;99.90;;;;;;5050811;28;20453;-74
2022/10/25 01:28:49;;;;;;;3.43;1.17;;;13.20;99.90;;;;;;5032886;28;20461;-74
2022/10/25 01:31:35;;;;;;;4.50;2.03;;;13.20;99.90;;;;;;5051153;28;20406;-74
2022/10/25 01:34:07;;;;;;;1.87;0.90;;;13.10;99.90;;;;;;5051308;28;20797;-74
2022/10/25 01:36:58;;;;;;;4.97;1.13;;;13.10;99.90;;;;;;5051081;28;20509;-75
2022/10/25 01:39:54;;;;;;;1.60;1.00;;;13.20;99.90;;;;;;5050986;28;20831;-74
2022/10/25 01:42:34;;;;;;;2.40;1.30;;;13.20;99.90;;;;;;5032812;28;20469;-75
2022/10/25 01:45:51;;;;;;;4.60;1.10;;;13.10;99.90;;;;;;5050894;28;20457;-75
2022/10/25 01:48:29;;;;;;;4.63;1.30;;;13.20;99.90;;;;;;4995498;28;20517;-74
2022/10/25 01:51:02;;;;;;;2.07;0.90;;;13.10;99.90;;;;;;5050857;28;20482;-74
2022/10/25 01:53:28;;;;;;;1.13;0.97;;;13.00;99.90;;;;;;5033790;28;20954;-74
2022/10/25 01:55:58;;;;;;;5.70;1.23;;;13.00;99.90;;;;;;5015504;28;20445;-74
2022/10/25 01:58:54;;;;;;;3.97;1.10;;;12.90;99.90;;;;;;5031681;28;20634;-75
2022/10/25 02:01:58;;;;;;;2.60;0.93;;;13.10;99.90;;;;;;5049820;28;20414;-74
2022/10/25 02:04:49;;;;;;;6.83;1.30;;;13.10;99.90;;;;;;5050093;28;20444;-75
2022/10/25 02:07:25;;;;;;;4.13;1.03;;;13.10;99.90;;;;;;5031806;28;20949;-74
2022/10/25 02:10:13;;;;;;;7.30;0.83;;;13.20;99.90;;;;;;5032009;28;20429;-74
2022/10/25 02:12:55;;;;;;;4.67;1.30;;;13.10;99.90;;;;;;5049722;28;20460;-74
2022/10/25 02:15:32;;;;;;;3.73;1.00;;;13.00;99.90;;;;;;5049726;28;20451;-74
2022/10/25 02:18:02;;;;;;;1.90;1.10;;;13.00;99.90;;;;;;5031641;28;20469;-74
2022/10/25 02:20:31;;;;;;;3.20;1.20;;;13.10;99.90;;;;;;5049608;28;20501;-74
2022/10/25 02:23:01;;;;;;;2.43;1.00;;;13.10;99.90;;;;;;5031368;28;20496;-74
2022/10/25 02:25:30;;;;;;;2.70;1.13;;;13.00;99.90;;;;;;5031563;28;20496;-74
2022/10/25 02:27:59;;;;;;;5.00;1.27;;;13.20;99.90;;;;;;5049835;28;20421;-74
2022/10/25 02:30:25;;;;;;;1.70;0.80;;;13.10;99.90;;;;;;5049760;28;20450;-74
2022/10/25 02:32:51;;;;;;;4.63;1.30;;;13.00;99.90;;;;;;5049240;28;20473;-75
2022/10/25 02:35:18;;;;;;;1.73;0.80;;;13.20;99.90;;;;;;5031155;28;20870;-74
2022/10/25 02:37:43;;;;;;;7.33;1.20;;;13.20;99.90;;;;;;5049001;28;20207;-74
2022/10/25 02:40:10;;;;;;;6.03;1.47;;;13.20;99.90;;;;;;5048728;28;20440;-74
2022/10/25 02:45:58;;;;;;;5.73;1.37;;;13.10;99.90;;;;;;5048696;28;20471;-74
2022/10/25 02:48:24;;;;;;;2.10;0.90;;;12.90;99.90;;;;;;5048549;28;20505;-73
2022/10/25 02:50:50;;;;;;;2.03;1.07;;;13.00;99.90;;;;;;5048485;28;20426;-74
2022/10/25 02:53:16;;;;;;;1.80;1.20;;;13.20;99.90;;;;;;5048448;28;20490;-74
2022/10/25 02:55:41;;;;;;;3.77;1.20;;;13.30;99.90;;;;;;5048519;28;20286;-74
2022/10/25 02:58:07;;;;;;;7.70;0.97;;;13.30;99.90;;;;;;5013891;28;20205;-75
2022/10/25 03:00:32;;;;;;;6.63;1.70;;;13.10;99.90;;;;;;5048396;28;20380;-74
2022/10/25 03:02:58;;;;;;;3.00;1.00;;;12.90;99.90;;;;;;5048330;28;20203;-75
2022/10/25 03:05:24;;;;;;;7.77;1.10;;;13.20;99.90;;;;;;5030345;28;20215;-75
2022/10/25 03:07:49;;;;;;;4.07;1.10;;;13.30;99.90;;;;;;5013880;28;20275;-74
2022/10/25 03:10:15;;;;;;;7.50;1.77;;;13.20;99.90;;;;;;5047545;28;20422;-75
2022/10/25 03:12:41;;;;;;;6.17;1.63;;;13.10;99.90;;;;;;5030118;28;20227;-74
2022/10/25 03:15:07;;;;;;;3.20;1.23;;;13.20;99.90;;;;;;5030285;28;20187;-75
2022/10/25 03:17:32;;;;;;;3.00;1.07;;;13.10;99.90;;;;;;5030231;28;20576;-74
2022/10/25 03:19:58;;;;;;;3.03;1.23;;;12.90;99.90;;;;;;5048269;28;20426;-74
2022/10/25 03:22:24;;;;;;;4.83;0.97;;;13.00;99.90;;;;;;5030298;28;20210;-74
2022/10/25 03:24:49;;;;;;;3.30;1.50;;;13.00;99.90;;;;;;5013725;28;20697;-74
2022/10/25 03:27:16;;;;;;;5.00;1.40;;;13.00;99.90;;;;;;5048211;28;20187;-74
2022/10/25 03:29:42;;;;;;;3.53;1.10;;;13.10;99.90;;;;;;5030405;28;20655;-74
2022/10/25 03:32:08;;;;;;;3.77;1.10;;;13.10;99.90;;;;;;5047974;28;20930;-73
2022/10/25 03:34:34;;;;;;;4.90;1.10;;;12.90;99.90;;;;;;5048016;28;20422;-74
2022/10/25 03:36:59;;;;;;;2.00;1.20;;;12.90;99.90;;;;;;5047913;28;20421;-73
2022/10/25 03:39:25;;;;;;;10.53;1.30;;;13.00;99.90;;;;;;5048032;28;20280;-74
2022/10/25 03:41:50;;;;;;;5.57;0.80;;;13.00;99.90;;;;;;5013439;28;20329;-74
2022/10/25 03:44:16;;;;;;;3.00;1.10;;;13.00;99.90;;;;;;5047930;28;20249;-74
2022/10/25 03:46:42;;;;;;;2.43;1.17;;;12.90;99.90;;;;;;5048016;28;20215;-73
2022/10/25 03:49:07;;;;;;;4.87;1.40;;;12.80;99.90;;;;;;5030176;28;20245;-74
2022/10/25 03:51:33;;;;;;;5.00;1.13;;;12.80;99.90;;;;;;5030419;28;20260;-73
2022/10/25 03:53:58;;;;;;;3.40;1.30;;;12.80;99.90;;;;;;5031288;28;20207;-74
2022/10/25 03:56:24;;;;;;;3.30;1.80;;;12.90;99.90;;;;;;5049392;28;20199;-74
2022/10/25 03:58:50;;;;;;;7.07;1.60;;;12.80;99.90;;;;;;5028535;28;20213;-78
2022/10/25 04:01:15;;;;;;;3.00;1.53;;;12.70;99.90;;;;;;5024093;28;20194;-74
2022/10/25 04:03:43;;;;;;;2.37;1.00;;;12.70;99.90;;;;;;5049514;28;20582;-74
2022/10/25 04:06:09;;;;;;;6.63;1.30;;;12.60;99.90;;;;;;5030557;28;20224;-74
2022/10/25 04:08:37;;;;;;;2.13;1.20;;;12.50;99.90;;;;;;5048469;28;20494;-74
2022/10/25 04:11:02;;;;;;;4.33;2.03;;;12.50;99.90;;;;;;5048247;28;20449;-74
2022/10/25 04:13:28;;;;;;;9.20;1.60;;;12.40;99.90;;;;;;5048141;28;20496;-73
2022/10/25 04:15:53;;;;;;;3.77;1.60;;;12.30;99.90;;;;;;5048357;28;20639;-74
2022/10/25 04:18:19;;;;;;;8.13;1.80;;;12.20;99.90;;;;;;5047667;28;20276;-74
2022/10/25 04:20:45;;;;;;;9.53;1.63;;;12.00;99.90;;;;;;5047757;28;20191;-74
2022/10/25 04:23:10;;;;;;;2.67;1.40;;;12.00;99.90;;;;;;5016160;28;20219;-74
2022/10/25 04:25:36;;;;;;;5.80;1.20;;;12.00;99.90;;;;;;5032234;28;20225;-74
2022/10/25 04:28:03;;;;;;;4.50;1.33;;;12.00;99.90;;;;;;5050089;28;20217;-74
2022/10/25 04:30:29;;;;;;;5.20;1.30;;;12.10;99.90;;;;;;5050203;28;20609;-73
2022/10/25 04:32:56;;;;;;;6.03;1.70;;;12.20;99.90;;;;;;5050228;28;20446;-74
2022/10/25 04:35:22;;;;;;;6.10;1.33;;;12.30;99.90;;;;;;5032433;28;20658;-74
2022/10/25 04:37:49;;;;;;;4.73;1.10;;;12.30;99.90;;;;;;5050193;28;20433;-74
2022/10/25 04:40:14;;;;;;;4.10;1.33;;;12.20;99.90;;;;;;5032196;28;20182;-74
2022/10/25 04:42:40;;;;;;;1.60;1.10;;;12.10;99.90;;;;;;5031925;28;20450;-74
2022/10/25 04:45:06;;;;;;;5.00;1.50;;;12.30;99.90;;;;;;5032186;28;20190;-73
2022/10/25 04:47:32;;;;;;;9.63;1.40;;;12.40;99.90;;;;;;5050234;28;20650;-73
2022/10/25 04:49:58;;;;;;;4.77;0.80;;;12.40;99.90;;;;;;5049945;28;20511;-73
2022/10/25 04:52:23;;;;;;;3.27;1.10;;;12.30;99.90;;;;;;5050040;28;20441;-73
2022/10/25 04:54:49;;;;;;;7.33;1.47;;;12.20;99.90;;;;;;5050139;28;20210;-72
2022/10/25 04:57:14;;;;;;;10.27;1.40;;;12.40;99.90;;;;;;5031434;28;20194;-73
2022/10/25 04:59:40;;;;;;;6.10;1.40;;;12.80;99.90;;;;;;5049751;28;20591;-74
2022/10/25 05:02:06;;;;;;;3.97;1.20;;;12.70;99.90;;;;;;5031431;28;20199;-73
2022/10/25 05:04:32;;;;;;;6.47;1.10;;;12.60;99.90;;;;;;5014551;28;20192;-74
2022/10/25 05:06:58;;;;;;;6.53;1.10;;;12.80;99.90;;;;;;5031180;28;20530;-73
2022/10/25 05:09:23;;;;;;;2.33;1.40;;;12.90;99.90;;;;;;5049404;28;20183;-73
2022/10/25 05:11:49;;;;;;;6.10;1.40;;;12.90;99.90;;;;;;5030888;28;20194;-73
2022/10/25 05:14:14;;;;;;;2.13;0.80;;;13.00;99.90;;;;;;5030994;28;20223;-74
2022/10/25 05:16:41;;;;;;;5.30;0.93;;;13.00;99.90;;;;;;5049014;28;20200;-73
2022/10/25 05:19:06;;;;;;;3.73;1.07;;;12.90;99.90;;;;;;5014618;28;20194;-73
2022/10/25 05:21:32;;;;;;;3.77;1.43;;;12.90;99.90;;;;;;5014041;28;20434;-73
2022/10/25 05:23:59;;;;;;;7.20;1.70;;;12.80;99.90;;;;;;5030855;28;20221;-73
2022/10/25 05:26:25;;;;;;;2.10;1.40;;;12.90;99.90;;;;;;5030696;28;20211;-73
2022/10/25 05:28:52;;;;;;;7.47;1.10;;;12.80;99.90;;;;;;5030563;28;20450;-73
2022/10/25 05:31:21;;;;;;;4.30;0.97;;;12.90;99.90;;;;;;5048774;28;20460;-73
2022/10/25 05:33:55;;;;;;;8.30;1.27;;;12.60;99.90;;;;;;5047973;28;20532;-73
2022/10/25 05:36:21;;;;;;;4.57;0.80;;;12.40;99.90;;;;;;5049479;28;20528;-74
2022/10/25 05:38:48;;;;;;;6.47;1.37;;;12.30;99.90;;;;;;5048796;28;20422;-73
2022/10/25 05:41:15;;;;;;;3.03;1.10;;;12.20;99.90;;;;;;5030271;28;20421;-74
2022/10/25 05:43:42;;;;;;;4.50;1.27;;;12.00;99.90;;;;;;5048295;28;20441;-73
2022/10/25 05:46:09;;;;;;;3.47;1.50;;;11.90;99.90;;;;;;5030011;28;20468;-73
2022/10/25 05:48:36;;;;;;;7.90;1.27;;;11.80;99.90;;;;;;5048172;28;20459;-73
2022/10/25 05:51:25;;;;;;;6.93;1.30;;;11.70;99.90;;;;;;5030318;28;20906;-73
2022/10/25 05:53:53;;;;;;;7.83;1.53;;;11.60;99.90;;;;;;5030254;28;20539;-73
2022/10/25 05:56:20;;;;;;;8.00;1.60;;;11.50;99.90;;;;;;5048679;28;20421;-73
2022/10/25 05:58:46;;;;;;;2.07;0.83;;;11.60;99.90;;;;;;5030662;28;20949;-73
2022/10/25 06:01:14;;;;;;;5.70;1.70;;;11.60;99.90;;;;;;5048517;28;20429;-72
2022/10/25 06:03:40;;;;;;;3.87;2.10;;;11.70;99.90;;;;;;5048120;28;20439;-73
2022/10/25 06:06:09;;;;;;;8.63;1.73;;;11.70;99.90;;;;;;5030335;28;20462;-72
2022/10/25 06:08:35;;;;;;;5.27;1.47;;;11.70;99.90;;;;;;5048264;28;20248;-73
2022/10/25 06:11:03;;;;;;;2.40;0.93;;;11.80;99.90;;;;;;5048235;28;20468;-72
2022/10/25 06:13:29;;;;;;;5.80;1.03;;;12.00;99.90;;;;;;5047929;28;20447;-73
2022/10/25 06:15:54;;;;;;;1.90;0.87;;;12.10;99.90;;;;;;5030108;28;20498;-73
2022/10/25 06:18:20;;;;;;;9.20;0.90;;;12.20;99.90;;;;;;5030320;28;20428;-72
2022/10/25 06:20:45;;;;;;;2.93;1.00;;;12.30;99.90;;;;;;5048366;28;20192;-72
2022/10/25 06:23:11;;;;;;;2.53;1.50;;;12.30;99.90;;;;;;5029994;28;20551;-73
2022/10/25 06:25:37;;;;;;;2.60;1.23;;;12.30;99.90;;;;;;5048484;28;20252;-72
2022/10/25 06:28:03;;;;;;;2.90;1.30;;;12.30;99.90;;;;;;5048685;28;20184;-72
2022/10/25 06:30:30;;;;;;;6.30;1.40;;;12.20;99.90;;;;;;5048588;28;20179;-73
2022/10/25 06:32:56;;;;;;;1.83;0.97;;;12.20;99.90;;;;;;5030627;28;21056;-73
2022/10/25 06:35:21;;;;;;;2.80;0.90;;;12.10;99.90;;;;;;5048190;28;20420;-72
2022/10/25 06:37:47;;;;;;;3.00;1.10;;;12.10;99.90;;;;;;5047932;28;20532;-73
2022/10/25 06:40:13;;;;;;;1.90;0.70;;;12.10;99.90;;;;;;5013509;28;20229;-72
2022/10/25 06:42:38;;;;;;;2.60;0.90;;;12.20;99.90;;;;;;5030148;28;20205;-73
2022/10/25 06:45:04;;;;;;;3.10;0.80;;;12.30;99.90;;;;;;5029507;28;20185;-73
2022/10/25 06:47:30;;;;;;;2.27;0.87;;;12.50;99.90;;;;;;5048259;28;20178;-73
2022/10/25 06:49:55;;;;;;;4.60;1.10;;;12.60;99.90;;;;;;5013292;28;20417;-73
2022/10/25 06:52:21;;;;;;;1.13;0.70;;;12.60;99.90;;;;;;5029530;28;20549;-74
2022/10/25 06:54:47;;;;;;;2.53;1.20;;;12.80;99.90;;;;;;5047555;28;20217;-73
2022/10/25 06:57:13;;;;;;;2.60;1.63;;;13.00;99.90;;;;;;5012941;28;20201;-73
2022/10/25 06:59:39;;;;;;;2.97;1.07;;;13.00;99.90;;;;;;5029892;28;20193;-73
2022/10/25 07:02:07;;;;;;;6.80;1.67;;;13.20;99.90;;;;;;5029525;28;20433;-73
2022/10/25 07:04:32;;;;;;;2.73;1.07;;;13.20;99.90;;;;;;5029748;28;20190;-73
2022/10/25 07:06:58;;;;;;;3.13;1.00;;;13.30;99.90;;;;;;5048697;28;20472;-72
2022/10/25 07:09:24;;;;;;;1.70;1.00;;;13.40;99.90;;;;;;5013796;28;20232;-73
2022/10/25 07:11:50;;;;;;;5.80;1.43;;;13.40;99.90;;;;;;5048272;28;20262;-73
2022/10/25 07:14:16;;;;;;;4.67;1.73;;;13.50;99.90;;;;;;5047943;28;20532;-72
2022/10/25 07:16:41;;;;;;;5.27;1.10;;;13.50;99.90;;;;;;5047991;28;20675;-73
2022/10/25 07:19:08;;;;;;;4.60;1.20;;;13.60;99.90;;;;;;5030097;28;20695;-73
2022/10/25 07:21:34;;;;;;;3.70;1.83;;;13.70;99.90;;;;;;5030059;28;20278;-73
2022/10/25 07:24:00;;;;;;;7.20;2.40;;;13.60;99.90;;;;;;5029558;28;20536;-73
2022/10/25 07:26:31;;;;;;;3.03;2.07;;;13.10;99.90;;;;;;5047330;28;20216;-73
2022/10/25 07:28:58;;;;;;;6.57;2.77;;;12.70;99.90;;;;;;5029222;28;20425;-73
2022/10/25 07:31:29;;;;;;;5.03;2.23;;;12.50;99.90;;;;;;5047226;28;20781;-73
2022/10/25 07:33:57;;;;;;;5.40;2.40;;;12.40;99.90;;;;;;5047144;28;20464;-72
2022/10/25 07:36:22;;;;;;;6.00;2.37;;;12.30;99.90;;;;;;5047048;28;20486;-73
2022/10/25 07:38:48;;;;;;;3.43;2.17;;;12.20;99.90;;;;;;5028914;28;20944;-72
2022/10/25 07:41:14;;;;;;;20.93;3.47;;;12.20;99.90;;;;;;5029034;28;20191;-73
2022/10/25 07:43:39;;;;;;;7.63;2.10;;;12.20;99.90;;;;;;5046785;28;20203;-73
2022/10/25 07:46:06;;;;;;;4.40;1.77;;;12.20;99.90;;;;;;5046701;28;20224;-73
2022/10/25 07:48:32;;;;;;;4.93;2.00;;;12.30;99.90;;;;;;5046878;28;20186;-73
2022/10/25 07:51:06;;;;;;;8.83;1.50;;;12.30;99.90;;;;;;5046725;28;20519;-73
2022/10/25 07:53:31;;;;;;;5.37;2.23;;;12.40;99.90;;;;;;5028525;28;20469;-73
2022/10/25 07:55:57;;;;;;;5.80;2.10;;;12.50;99.90;;;;;;5047865;28;20843;-73
2022/10/25 07:58:23;;;;;;;5.23;2.13;;;12.70;99.90;;;;;;5032349;28;20183;-73
2022/10/25 08:00:48;;;;;;;1.93;1.80;;;12.70;99.90;;;;;;5032149;28;20198;-73
2022/10/25 08:03:16;;;;;;;6.30;2.30;;;12.90;99.90;;;;;;5050402;28;20237;-73
2022/10/25 08:05:46;;;;;;;6.97;2.07;;;13.00;99.90;;;;;;5032395;28;20268;-73
2022/10/25 08:08:13;;;;;;;5.87;1.50;;;13.10;99.90;;;;;;5033663;28;20849;-73
2022/10/25 08:10:40;;;;;;;3.47;1.60;;;13.20;99.90;;;;;;5032718;28;20425;-73
2022/10/25 08:13:05;;;;;;;5.57;1.70;;;13.30;99.90;;;;;;5050010;28;21008;-74
2022/10/25 08:15:31;;;;;;;3.73;1.60;;;13.50;99.90;;;;;;5032081;28;20533;-73
2022/10/25 08:17:58;;;;;;;6.10;1.33;;;13.80;99.90;;;;;;5049943;28;20191;-73
2022/10/25 08:20:24;;;;;;;7.63;1.70;;;13.90;99.90;;;;;;5032143;28;20238;-73
2022/10/25 08:22:49;;;;;;;4.40;1.83;;;14.10;99.90;;;;;;5014999;28;20442;-73
2022/10/25 08:25:15;;;;;;;5.93;1.60;;;14.20;99.90;;;;;;5015000;28;20188;-73
2022/10/25 08:27:41;;;;;;;4.40;1.43;;;14.50;99.90;;;;;;5031636;28;20187;-73
2022/10/25 08:30:07;;;;;;;2.97;0.97;;;14.80;99.90;;;;;;5049628;28;20278;-74
2022/10/25 08:32:36;;;;;;;5.03;0.80;;;15.00;99.90;;;;;;5049528;28;20440;-74
2022/10/25 08:35:02;;;;;;;3.40;1.43;;;15.00;99.90;;;;;;5049652;28;20934;-72
2022/10/25 08:37:27;;;;;;;2.70;0.83;;;15.40;99.90;;;;;;5049631;28;20426;-73
2022/10/25 08:39:53;;;;;;;2.97;0.87;;;16.10;99.90;;;;;;5049472;28;20599;-73
2022/10/25 08:42:36;;;;;;;3.40;0.90;;;16.60;99.90;;;;;;5031485;28;20257;-73
2022/10/25 08:45:15;;;;;;;4.63;0.80;;;17.00;99.90;;;;;;5049317;28;20183;-73
2022/10/25 08:47:45;;;;;;;1.20;0.70;;;17.80;99.90;;;;;;5049465;28;20420;-74
2022/10/25 08:50:21;;;;;;;3.00;0.73;;;18.10;99.90;;;;;;5031496;28;20949;-73
2022/10/25 08:52:53;;;;;;;2.83;0.80;;;18.40;99.90;;;;;;5049492;28;20428;-74
2022/10/25 08:55:31;;;;;;;3.17;1.03;;;18.90;99.90;;;;;;5031422;28;20878;-73
2022/10/25 08:57:59;;;;;;;3.43;0.80;;;19.70;99.90;;;;;;5031228;28;20424;-73
2022/10/25 09:00:34;;;;;;;2.20;0.80;;;20.30;99.90;;;;;;5049648;28;20829;-73
2022/10/25 09:03:01;;;;;;;3.77;0.87;;;20.00;99.90;;;;;;5049448;28;20432;-74
2022/10/25 09:05:59;;;;;;;1.87;0.70;;;20.20;99.00;;;;;;5049416;28;20472;-73
2022/10/25 09:08:46;;;;;;;1.90;0.60;;;20.30;98.90;;;;;;5029742;28;20457;-73
2022/10/25 09:11:23;;;;;;;1.73;0.70;;;21.30;97.80;;;;;;5048883;28;20413;-73
2022/10/25 09:13:51;;;;;;;10.17;1.07;;;20.90;99.50;;;;;;5030661;28;20549;-73
2022/10/25 09:16:38;;;;;;;1.90;1.10;;;20.70;97.00;;;;;;5048871;28;20509;-73
2022/10/25 09:19:17;;;;;;;3.93;0.97;;;20.30;97.00;;;;;;5029862;28;20948;-73
2022/10/25 09:21:55;;;;;;;3.83;1.00;;;22.20;94.60;;;;;;5048611;28;20445;-72
2022/10/25 09:24:32;;;;;;;4.20;1.17;;;23.40;94.20;;;;;;5030453;28;20476;-72
2022/10/25 09:27:15;;;;;;;2.40;1.00;;;24.10;93.00;;;;;;5048633;28;20918;-73
2022/10/25 09:29:54;;;;;;;1.40;0.80;;;22.90;90.40;;;;;;5048646;28;20445;-72
2022/10/25 09:32:33;;;;;;;2.67;0.80;;;22.40;93.50;;;;;;5048588;28;20434;-73
2022/10/25 09:35:00;;;;;;;4.17;0.97;;;22.90;92.20;;;;;;5048570;28;20475;-73
2022/10/25 09:37:42;;;;;;;1.97;0.80;;;23.00;91.20;;;;;;5030316;28;20422;-73
2022/10/25 09:40:20;;;;;;;5.50;1.20;;;23.60;90.80;;;;;;5048368;28;20880;-73
2022/10/25 09:42:54;;;;;;;2.40;0.80;;;24.10;91.20;;;;;;5030094;28;20442;-73
2022/10/25 09:45:27;;;;;;;3.87;0.90;;;24.30;90.90;;;;;;5048372;28;20458;-73
2022/10/25 09:48:01;;;;;;;2.53;0.90;;;24.30;89.00;;;;;;5048671;28;20968;-74
2022/10/25 09:50:33;;;;;;;1.57;0.93;;;23.80;88.60;;;;;;5048200;28;20415;-73
2022/10/25 09:53:11;;;;;;;3.40;0.70;;;22.80;88.90;;;;;;5048148;28;20438;-72
2022/10/25 09:55:52;;;;;;;3.60;1.03;;;23.40;90.90;;;;;;5048498;28;20424;-73
2022/10/25 09:58:20;;;;;;;2.00;0.77;;;24.50;91.00;;;;;;5048404;28;20426;-73
2022/10/25 10:00:47;;;;;;;2.03;0.77;;;25.00;89.20;;;;;;5030273;28;20498;-73
2022/10/25 10:03:13;;;;;;;1.93;0.90;;;24.10;85.70;;;;;;5013389;28;20457;-73
2022/10/25 10:05:44;;;;;;;2.93;0.80;;;23.50;87.40;;;;;;5048524;28;20512;-73
2022/10/25 10:08:09;;;;;;;1.77;0.80;;;24.40;88.90;;;;;;5030948;28;20431;-73
2022/10/25 10:10:36;;;;;;;4.23;0.73;;;25.10;88.00;;;;;;5030800;28;20456;-72
2022/10/25 10:13:15;;;;;;;3.50;1.03;;;25.10;83.30;;;;;;5048728;28;20605;-72
2022/10/25 10:16:20;;;;;;;3.70;1.30;;;24.60;85.20;;;;;;5031010;28;20431;-74
2022/10/25 10:18:47;;;;;;;1.27;0.77;;;24.90;86.00;;;;;;5033367;28;20437;-73
2022/10/25 10:21:17;;;;;;;5.83;0.80;;;25.20;85.10;;;;;;5048304;28;20449;-74
2022/10/25 10:24:03;;;;;;;2.00;0.80;;;25.40;82.90;;;;;;5029699;28;20510;-74
2022/10/25 10:26:32;;;;;;;1.83;0.80;;;24.60;83.40;;;;;;5047639;28;20791;-72
2022/10/25 10:29:08;;;;;;;6.73;1.07;;;25.00;86.70;;;;;;5013359;28;20529;-74
2022/10/25 10:31:35;;;;;;;4.30;0.80;;;25.50;82.10;;;;;;5029750;28;20431;-73
2022/10/25 10:34:01;;;;;;;2.53;1.20;;;25.60;80.50;;;;;;5029892;28;20512;-71
2022/10/25 10:36:29;;;;;;;4.97;1.53;;;25.60;80.10;;;;;;5047721;28;20454;-72
2022/10/25 10:39:18;;;;;;;3.53;1.10;;;25.60;80.80;;;;;;5029313;28;20447;-73
2022/10/25 10:42:12;;;;;;;2.00;0.70;;;25.40;80.00;;;;;;5047537;28;20457;-73
2022/10/25 10:44:38;;;;;;;8.73;0.90;;;25.00;82.10;;;;;;5047251;28;21231;-74
2022/10/25 10:47:19;;;;;;;1.40;0.93;;;24.60;82.90;;;;;;5047143;28;20465;-73
2022/10/25 10:49:46;;;;;;;3.93;1.10;;;25.30;83.00;;;;;;5047555;28;20420;-73
2022/10/25 10:52:33;;;;;;;4.10;1.00;;;25.60;82.40;;;;;;5047434;28;20526;-73
2022/10/25 10:55:00;;;;;;;2.50;0.80;;;25.30;82.00;;;;;;5047419;28;20421;-73
2022/10/25 10:57:34;;;;;;;4.07;1.20;;;25.60;79.80;;;;;;5047164;28;20426;-73
2022/10/25 11:00:01;;;;;;;6.40;1.33;;;25.70;80.40;;;;;;5046941;28;20433;-72
2022/10/25 11:02:40;;;;;;;1.63;0.80;;;25.20;80.60;;;;;;5046882;28;20442;-73
2022/10/25 11:05:28;;;;;;;1.90;0.57;;;25.20;80.40;;;;;;5028915;28;20483;-73
2022/10/25 11:08:07;;;;;;;1.80;0.90;;;26.10;79.60;;;;;;5047183;28;20428;-74
2022/10/25 11:10:35;;;;;;;7.60;1.33;;;26.20;79.80;;;;;;5047932;28;20417;-73
2022/10/25 11:13:19;;;;;;;1.47;0.93;;;26.30;79.20;;;;;;5028701;28;20512;-73
2022/10/25 11:15:48;;;;;;;1.90;0.80;;;26.40;79.90;;;;;;5047274;28;20802;-73
2022/10/25 11:18:15;;;;;;;1.90;0.90;;;25.90;79.20;;;;;;5047566;28;20424;-73
2022/10/25 11:21:01;;;;;;;3.27;0.93;;;25.10;79.40;;;;;;5048382;28;20422;-73
2022/10/25 11:23:31;;;;;;;4.13;1.10;;;24.90;82.20;;;;;;5029715;28;20449;-73
2022/10/25 11:26:23;;;;;;;5.17;1.07;;;24.90;82.20;;;;;;5047471;28;20543;-72
2022/10/25 11:29:00;;;;;;;2.07;0.80;;;24.30;80.00;;;;;;4999081;28;20438;-76
2022/10/25 11:31:46;;;;;;;2.40;0.90;;;24.40;83.90;;;;;;5046659;28;20433;-73
2022/10/25 11:34:21;;;;;;;3.40;0.77;;;24.20;82.00;;;;;;5047035;28;20441;-74
2022/10/25 11:36:55;;;;;;;4.90;0.90;;;24.10;83.20;;;;;;5046959;28;20450;-73
2022/10/25 11:39:59;;;;;;;2.30;0.87;;;23.30;80.50;;;;;;5046754;28;20424;-73
2022/10/25 11:42:39;;;;;;;2.03;0.70;;;23.00;82.50;;;;;;5046576;28;20566;-73
2022/10/25 11:45:23;;;;;;;4.80;1.10;;;23.40;85.40;;;;;;5046631;28;20422;-73
2022/10/25 11:48:08;;;;;;;4.07;0.70;;;23.30;83.70;;;;;;5046474;28;20435;-74
2022/10/25 11:50:40;;;;;;;1.63;0.80;;;22.80;84.60;;;;;;5046502;28;20502;-73
2022/10/25 11:53:24;;;;;;;2.37;1.00;;;22.80;86.90;;;;;;5046473;28;20433;-73
2022/10/25 11:56:14;;;;;;;2.67;0.83;;;22.90;82.90;;;;;;5047564;28;20443;-73
2022/10/25 11:59:25;;;;;;;2.93;0.83;;;23.10;82.60;;;;;;5047129;28;20420;-73
2022/10/25 12:02:17;;;;;;;5.17;0.70;;;22.90;82.00;;;;;;5042093;28;20444;-73
2022/10/25 12:05:02;;;;;;;3.77;0.87;;;22.70;82.50;;;;;;5047087;28;20911;-74
2022/10/25 12:07:34;;;;;;;2.30;0.80;;;22.70;82.60;;;;;;5046698;28;20557;-73
2022/10/25 12:10:09;;;;;;;2.40;0.80;;;22.60;79.80;;;;;;5046866;28;20476;-73
2022/10/25 12:12:44;;;;;;;1.80;0.70;;;22.60;83.10;;;;;;5046661;28;20490;-74
2022/10/25 12:15:30;;;;;;;3.80;0.90;;;22.60;79.60;;;;;;5046493;28;20413;-74
2022/10/25 12:17:57;;;;;;;2.03;0.80;;;22.80;80.40;;;;;;5030088;28;20946;-75
2022/10/25 12:20:26;;;;;;;2.97;1.20;;;23.10;80.50;;;;;;5028231;28;20431;-75
2022/10/25 12:22:57;;;;;;;4.73;1.03;;;22.90;79.60;;;;;;5046314;28;20951;-75
2022/10/25 12:25:51;;;;;;;2.23;0.90;;;22.80;79.10;;;;;;5047687;28;20787;-74
2022/10/25 12:28:45;;;;;;;1.73;0.60;;;22.90;78.70;;;;;;5046772;28;20478;-73
2022/10/25 12:31:32;;;;;;;2.17;0.70;;;23.00;77.20;;;;;;5045959;28;20416;-77
2022/10/25 12:34:13;;;;;;;1.23;0.60;;;22.60;76.60;;;;;;5046132;28;20434;-74
2022/10/25 12:36:59;;;;;;;1.10;0.63;;;22.60;77.20;;;;;;5046143;28;20414;-74
2022/10/25 12:39:41;;;;;;;3.30;1.00;;;22.70;78.70;;;;;;5027790;28;20422;-73
2022/10/25 12:42:22;;;;;;;2.20;0.80;;;22.80;78.60;;;;;;5047017;28;20428;-74
2022/10/25 12:44:51;;;;;;;4.67;0.70;;;22.70;76.50;;;;;;5049493;28;20459;-74
2022/10/25 12:47:31;;;;;;;2.20;0.60;;;22.50;78.00;;;;;;5049280;28;20461;-73
2022/10/25 12:50:43;;;;;;;2.17;0.63;;;22.30;78.40;;;;;;5049271;28;20925;-74
2022/10/25 12:53:31;;;;;;;2.03;1.00;;;22.20;79.70;;;;;;5044222;28;20504;-73
2022/10/25 12:56:05;;;;;;;2.50;0.90;;;21.90;79.70;;;;;;5049253;28;20468;-75
2022/10/25 12:58:43;;;;;;;6.93;0.90;;;21.80;81.00;;;;;;5031176;28;20422;-75
2022/10/25 13:01:11;;;;;;;1.93;0.50;;;21.70;84.80;;;;;;5049276;28;21310;-74
2022/10/25 13:03:55;;;;;;;3.20;0.60;;;21.30;80.80;;;;;;5049041;28;20430;-76
2022/10/25 13:06:41;;;;;;;2.27;0.60;;;21.20;84.10;;;;;;5048960;28;20456;-75
2022/10/25 13:09:19;;;;;;;3.77;0.60;;;20.90;82.60;;;;;;5015354;28;20438;-75
2022/10/25 13:12:07;;;;;;;1.67;0.57;;;21.20;82.60;;;;;;5049177;28;20497;-76